Time;durP1;ratioP1;P1;durP2;ratioP2;P2;SDS_P1;SDS_P2;PMS_P1;PMS_P2;Temp;Humidity;BMP_temperature;BMP_pressure;BME280_temperature;BME280_humidity;BME280_pressure;Samples;Min_cycle;Max_cycle;Signal;HPM_P1;HPM_P2
2023/10/31 00:01:32;;;;;;;30.83;16.67;;;10.70;99.90;;;;;;5090711;28;20287;-57
2023/10/31 00:04:00;;;;;;;28.00;16.23;;;10.70;99.90;;;;;;5082055;28;20232;-56
2023/10/31 00:06:28;;;;;;;29.77;16.40;;;10.70;99.90;;;;;;5053935;28;20223;-59
2023/10/31 00:09:01;;;;;;;26.57;16.07;;;10.70;99.90;;;;;;5066931;28;20234;-57
2023/10/31 00:11:29;;;;;;;30.47;16.77;;;10.70;99.90;;;;;;5066333;28;20216;-58
2023/10/31 00:13:57;;;;;;;27.60;16.23;;;10.70;99.90;;;;;;5069232;28;20215;-57
2023/10/31 00:16:26;;;;;;;27.97;15.70;;;10.70;99.90;;;;;;5087474;28;20640;-58
2023/10/31 00:18:54;;;;;;;28.07;16.53;;;10.70;99.90;;;;;;5091088;28;20309;-57
2023/10/31 00:21:22;;;;;;;26.40;17.27;;;10.70;99.90;;;;;;5087450;28;20224;-57
2023/10/31 00:23:50;;;;;;;32.90;18.53;;;10.80;99.90;;;;;;5083620;28;20233;-58
2023/10/31 00:26:20;;;;;;;28.33;17.67;;;10.70;99.90;;;;;;5088200;28;20540;-58
2023/10/31 00:28:48;;;;;;;28.07;16.67;;;10.70;99.90;;;;;;5080684;28;20207;-58
2023/10/31 00:31:16;;;;;;;28.67;16.57;;;10.70;99.90;;;;;;5079813;28;20200;-58
2023/10/31 00:33:44;;;;;;;28.20;17.47;;;10.70;99.90;;;;;;5085304;28;20219;-57
2023/10/31 00:36:13;;;;;;;26.80;16.57;;;10.70;99.90;;;;;;5085805;28;20276;-57
2023/10/31 00:38:41;;;;;;;27.40;17.50;;;10.70;99.90;;;;;;5087950;28;20246;-57
2023/10/31 00:41:09;;;;;;;29.70;17.37;;;10.70;99.90;;;;;;5080262;28;20222;-58
2023/10/31 00:43:39;;;;;;;27.03;17.83;;;10.80;99.90;;;;;;5090959;28;20195;-55
2023/10/31 00:46:07;;;;;;;26.40;17.70;;;10.70;99.90;;;;;;5087224;28;20223;-57
2023/10/31 00:48:37;;;;;;;27.57;18.10;;;10.70;99.90;;;;;;5087719;28;20570;-57
2023/10/31 00:51:05;;;;;;;27.23;18.00;;;10.70;99.90;;;;;;5086694;28;20221;-57
2023/10/31 00:53:34;;;;;;;25.23;17.97;;;10.70;99.90;;;;;;5089384;28;20219;-57
2023/10/31 00:56:02;;;;;;;26.70;17.83;;;10.70;99.90;;;;;;5091299;28;20581;-58
2023/10/31 00:58:31;;;;;;;27.87;17.73;;;10.70;99.90;;;;;;5072113;28;20218;-56
2023/10/31 01:01:00;;;;;;;28.47;18.50;;;10.70;99.90;;;;;;5072389;28;20219;-58
2023/10/31 01:03:30;;;;;;;27.80;18.80;;;10.80;99.90;;;;;;5082871;28;20742;-58
2023/10/31 01:06:01;;;;;;;26.80;17.27;;;10.70;99.90;;;;;;5083667;28;20746;-57
2023/10/31 01:08:30;;;;;;;25.77;17.67;;;10.70;99.90;;;;;;5084682;28;20234;-57
2023/10/31 01:10:58;;;;;;;24.43;16.90;;;10.70;99.90;;;;;;5086417;28;20773;-58
2023/10/31 01:13:26;;;;;;;24.13;17.13;;;10.70;99.90;;;;;;5085507;28;20279;-57
2023/10/31 01:15:54;;;;;;;25.73;16.27;;;10.70;99.90;;;;;;5081900;28;20216;-57
2023/10/31 01:18:24;;;;;;;22.67;15.73;;;10.80;99.90;;;;;;5087526;28;20256;-57
2023/10/31 01:20:52;;;;;;;21.80;15.00;;;10.80;99.90;;;;;;5088708;28;20222;-58
2023/10/31 01:23:20;;;;;;;21.83;15.20;;;10.70;99.90;;;;;;5081923;28;20210;-58
2023/10/31 01:25:49;;;;;;;20.63;14.53;;;10.70;99.90;;;;;;5085169;28;20215;-59
2023/10/31 01:28:17;;;;;;;22.63;14.20;;;10.50;99.90;;;;;;5092499;28;20207;-56
2023/10/31 01:30:45;;;;;;;22.13;14.43;;;10.50;99.90;;;;;;5085343;28;20235;-60
2023/10/31 01:33:13;;;;;;;17.77;14.20;;;10.50;99.90;;;;;;5094796;28;20235;-57
2023/10/31 01:35:43;;;;;;;22.27;14.13;;;10.40;99.90;;;;;;5060500;28;20684;-58
2023/10/31 01:38:12;;;;;;;19.03;13.87;;;10.40;99.90;;;;;;5085025;28;20311;-57
2023/10/31 01:40:40;;;;;;;19.67;14.00;;;10.40;99.90;;;;;;5082630;28;20282;-57
2023/10/31 01:43:08;;;;;;;20.20;13.43;;;10.40;99.90;;;;;;5087415;28;20188;-57
2023/10/31 01:45:36;;;;;;;20.93;13.37;;;10.40;99.90;;;;;;5083124;28;20219;-58
2023/10/31 01:48:05;;;;;;;19.33;13.67;;;10.30;99.90;;;;;;5084868;28;20554;-57
2023/10/31 01:50:33;;;;;;;17.50;13.00;;;10.30;99.90;;;;;;5086065;28;20215;-56
2023/10/31 01:53:03;;;;;;;20.33;13.33;;;10.30;99.90;;;;;;5084331;28;20230;-58
2023/10/31 01:55:31;;;;;;;18.47;12.90;;;10.30;99.90;;;;;;5084584;28;20245;-58
2023/10/31 01:58:00;;;;;;;16.90;12.63;;;10.40;99.90;;;;;;5084152;28;20223;-58
2023/10/31 02:00:32;;;;;;;14.77;11.77;;;10.30;99.90;;;;;;5066471;28;20211;-58
2023/10/31 02:03:00;;;;;;;17.77;11.43;;;10.40;99.90;;;;;;5062867;28;20762;-58
2023/10/31 02:05:32;;;;;;;13.90;11.23;;;10.30;99.90;;;;;;5066731;28;20285;-58
2023/10/31 02:08:00;;;;;;;12.87;9.83;;;10.40;99.90;;;;;;5066599;28;20258;-57
2023/10/31 02:10:29;;;;;;;13.47;9.27;;;10.30;99.90;;;;;;5063747;28;20196;-57
2023/10/31 02:12:58;;;;;;;10.57;8.33;;;10.30;99.90;;;;;;5084678;28;20219;-58
2023/10/31 02:15:26;;;;;;;10.37;7.80;;;10.30;99.90;;;;;;5080572;28;20219;-58
2023/10/31 02:17:54;;;;;;;9.53;6.87;;;10.30;99.90;;;;;;5079857;28;20215;-58
2023/10/31 02:20:22;;;;;;;7.77;6.80;;;10.30;99.90;;;;;;5079174;28;20269;-57
2023/10/31 02:22:52;;;;;;;9.80;6.57;;;10.30;99.90;;;;;;5085512;28;20265;-57
2023/10/31 02:25:20;;;;;;;7.40;6.37;;;10.30;99.90;;;;;;5083260;28;20195;-57
2023/10/31 02:27:48;;;;;;;9.27;6.77;;;10.20;99.90;;;;;;5082387;28;20567;-58
2023/10/31 02:30:17;;;;;;;7.97;5.97;;;10.20;99.90;;;;;;5079383;28;20211;-57
2023/10/31 02:32:46;;;;;;;8.43;5.23;;;10.20;99.90;;;;;;5081164;28;20689;-57
2023/10/31 02:35:17;;;;;;;8.77;5.17;;;10.20;99.90;;;;;;5079555;28;20220;-57
2023/10/31 02:37:46;;;;;;;5.10;4.60;;;10.10;99.90;;;;;;5079650;28;20664;-57
2023/10/31 02:40:16;;;;;;;5.87;4.30;;;10.10;99.90;;;;;;5081491;28;20278;-58
2023/10/31 02:42:44;;;;;;;5.73;5.07;;;10.10;99.90;;;;;;5079867;28;20230;-57
2023/10/31 02:45:13;;;;;;;5.40;5.00;;;10.10;99.90;;;;;;5062924;28;20230;-57
2023/10/31 02:47:41;;;;;;;5.63;4.70;;;10.00;99.90;;;;;;5067651;28;20227;-57
2023/10/31 02:50:10;;;;;;;5.37;4.87;;;10.00;99.90;;;;;;5076680;28;20216;-57
2023/10/31 02:52:38;;;;;;;5.90;5.30;;;10.00;99.90;;;;;;5080813;28;20253;-57
2023/10/31 02:55:06;;;;;;;6.17;5.17;;;9.90;99.90;;;;;;5081323;28;20286;-58
2023/10/31 02:57:36;;;;;;;5.53;5.07;;;9.80;99.90;;;;;;5043154;28;20307;-57
2023/10/31 03:00:05;;;;;;;5.73;5.20;;;9.70;99.90;;;;;;5060914;28;20546;-59
2023/10/31 03:02:34;;;;;;;6.97;5.60;;;9.70;99.90;;;;;;5041400;28;20256;-58
2023/10/31 03:05:02;;;;;;;6.37;5.60;;;9.60;99.90;;;;;;5059206;28;20270;-59
2023/10/31 03:07:30;;;;;;;6.93;6.23;;;9.50;99.90;;;;;;5065297;28;20224;-58
2023/10/31 03:09:59;;;;;;;6.43;5.70;;;9.50;99.90;;;;;;5081053;28;20215;-58
2023/10/31 03:12:28;;;;;;;8.87;6.10;;;9.50;99.90;;;;;;5084623;28;20219;-59
2023/10/31 03:14:58;;;;;;;8.13;5.67;;;9.50;99.90;;;;;;5082607;28;20249;-58
2023/10/31 03:17:27;;;;;;;8.40;6.30;;;9.50;99.90;;;;;;5083812;28;20220;-58
2023/10/31 03:19:56;;;;;;;6.40;5.80;;;9.50;99.90;;;;;;5078608;28;20216;-59
2023/10/31 03:22:24;;;;;;;7.57;6.03;;;9.50;99.90;;;;;;5081400;28;20562;-58
2023/10/31 03:24:52;;;;;;;9.00;6.23;;;9.40;99.90;;;;;;5080637;28;20227;-58
2023/10/31 03:27:20;;;;;;;6.80;6.10;;;9.40;99.90;;;;;;5081581;28;20226;-58
2023/10/31 03:29:49;;;;;;;6.63;6.00;;;9.40;99.90;;;;;;5082956;28;20341;-58
2023/10/31 03:32:18;;;;;;;6.80;6.10;;;9.30;99.90;;;;;;5081240;28;20716;-58
2023/10/31 03:34:46;;;;;;;9.37;6.20;;;9.30;99.90;;;;;;5079655;28;20214;-59
2023/10/31 03:37:15;;;;;;;8.43;6.60;;;9.30;99.90;;;;;;5079368;28;20314;-58
2023/10/31 03:39:43;;;;;;;9.87;6.53;;;9.30;99.90;;;;;;5083121;28;20231;-58
2023/10/31 03:42:11;;;;;;;8.57;6.43;;;9.30;99.90;;;;;;5081428;28;20222;-58
2023/10/31 03:44:39;;;;;;;7.70;6.57;;;9.30;99.90;;;;;;5082352;28;20780;-58
2023/10/31 03:47:07;;;;;;;8.47;6.67;;;9.30;99.90;;;;;;5084106;28;20228;-58
2023/10/31 03:49:38;;;;;;;7.87;7.10;;;9.20;99.90;;;;;;5079655;28;20215;-57
2023/10/31 03:52:07;;;;;;;7.13;6.43;;;9.20;99.90;;;;;;5079578;28;20188;-58
2023/10/31 03:54:35;;;;;;;8.37;6.53;;;9.20;99.90;;;;;;5090658;28;20256;-58
2023/10/31 03:57:04;;;;;;;7.47;6.77;;;9.10;99.90;;;;;;5068814;28;20212;-57
2023/10/31 03:59:32;;;;;;;8.50;6.53;;;9.10;99.90;;;;;;5087235;28;20224;-58
2023/10/31 04:02:00;;;;;;;9.67;5.93;;;9.10;99.90;;;;;;5084999;28;20226;-58
2023/10/31 04:04:28;;;;;;;8.43;6.50;;;9.00;99.90;;;;;;5083240;28;20535;-58
2023/10/31 04:06:58;;;;;;;9.60;6.23;;;9.00;99.90;;;;;;5086034;28;20219;-58
2023/10/31 04:09:26;;;;;;;9.43;6.40;;;9.00;99.90;;;;;;5085932;28;20211;-57
2023/10/31 04:11:54;;;;;;;8.73;6.73;;;9.00;99.90;;;;;;5089216;28;20723;-57
2023/10/31 04:14:23;;;;;;;9.27;6.80;;;9.00;99.90;;;;;;5085224;28;20211;-58
2023/10/31 04:16:51;;;;;;;8.57;6.33;;;8.90;99.90;;;;;;5091927;28;20215;-58
2023/10/31 04:19:19;;;;;;;8.47;6.57;;;8.90;99.90;;;;;;5091158;28;20183;-58
2023/10/31 04:21:48;;;;;;;7.93;6.53;;;8.90;99.90;;;;;;5084668;28;20224;-58
2023/10/31 04:24:17;;;;;;;8.07;6.43;;;8.80;99.90;;;;;;5085498;28;20207;-57
2023/10/31 04:26:45;;;;;;;7.00;6.33;;;8.90;99.90;;;;;;5084514;28;20223;-57
2023/10/31 04:29:13;;;;;;;7.13;6.43;;;8.80;99.90;;;;;;5091036;28;20215;-58
2023/10/31 04:31:42;;;;;;;7.07;6.30;;;8.80;99.90;;;;;;5084167;28;20248;-57
2023/10/31 04:34:12;;;;;;;9.93;7.10;;;8.80;99.90;;;;;;5086586;28;20196;-57
2023/10/31 04:36:40;;;;;;;7.80;6.70;;;8.70;99.90;;;;;;5088627;28;20215;-57
2023/10/31 04:39:09;;;;;;;9.20;6.63;;;8.80;99.90;;;;;;5084762;28;20579;-57
2023/10/31 04:41:39;;;;;;;9.17;8.23;;;8.80;99.90;;;;;;5086337;28;20307;-57
2023/10/31 04:44:07;;;;;;;9.27;7.97;;;8.90;99.90;;;;;;5082215;28;20219;-57
2023/10/31 04:46:35;;;;;;;10.83;9.07;;;9.00;99.90;;;;;;5083779;28;20223;-56
2023/10/31 04:49:04;;;;;;;12.67;9.23;;;9.00;99.90;;;;;;5086077;28;20354;-57
2023/10/31 04:51:34;;;;;;;15.60;9.57;;;9.10;99.90;;;;;;5082372;28;20318;-57
2023/10/31 04:54:03;;;;;;;14.37;10.20;;;9.10;99.90;;;;;;5083218;28;20590;-57
2023/10/31 04:56:31;;;;;;;15.00;10.37;;;9.10;99.90;;;;;;5083735;28;20620;-57
2023/10/31 04:59:01;;;;;;;19.70;11.00;;;9.10;99.90;;;;;;5078526;28;20223;-58
2023/10/31 05:01:29;;;;;;;17.20;9.80;;;9.20;99.90;;;;;;5085258;28;20320;-57
2023/10/31 05:03:57;;;;;;;16.73;10.40;;;9.10;99.90;;;;;;5082104;28;20651;-57
2023/10/31 05:06:39;;;;;;;15.97;10.73;;;9.20;99.90;;;;;;5090571;28;20253;-57
2023/10/31 05:09:07;;;;;;;13.50;10.00;;;9.10;99.90;;;;;;5085444;28;20219;-58
2023/10/31 05:11:36;;;;;;;15.00;10.77;;;9.10;99.90;;;;;;5089463;28;20227;-57
2023/10/31 05:14:06;;;;;;;17.07;10.83;;;9.10;99.90;;;;;;5084441;28;20226;-57
2023/10/31 05:16:41;;;;;;;16.83;11.90;;;9.20;99.90;;;;;;5081748;28;20269;-58
2023/10/31 05:19:09;;;;;;;17.13;11.07;;;9.20;99.90;;;;;;5086242;28;21020;-57
2023/10/31 05:21:37;;;;;;;21.67;12.00;;;9.20;99.90;;;;;;5065972;28;20223;-57
2023/10/31 05:24:07;;;;;;;20.20;12.90;;;9.20;99.90;;;;;;5084653;28;20221;-57
2023/10/31 05:26:35;;;;;;;20.83;12.77;;;9.20;99.90;;;;;;5080697;28;20212;-57
2023/10/31 05:29:03;;;;;;;25.73;14.73;;;9.20;99.90;;;;;;5084202;28;20227;-57
2023/10/31 05:31:33;;;;;;;21.50;13.17;;;9.20;99.90;;;;;;5078624;28;20210;-57
2023/10/31 05:34:01;;;;;;;21.33;13.17;;;9.10;99.90;;;;;;5078162;28;20667;-57
2023/10/31 05:36:29;;;;;;;20.80;13.20;;;9.20;99.90;;;;;;5084394;28;20306;-57
2023/10/31 05:38:58;;;;;;;23.53;13.90;;;9.20;99.90;;;;;;5077176;28;20242;-57
2023/10/31 05:41:26;;;;;;;20.80;13.23;;;9.10;99.90;;;;;;5066106;28;20739;-58
2023/10/31 05:43:54;;;;;;;22.27;13.77;;;9.10;99.90;;;;;;5062687;28;20225;-57
2023/10/31 05:46:23;;;;;;;24.70;13.87;;;9.10;99.90;;;;;;5064034;28;20549;-57
2023/10/31 05:48:52;;;;;;;19.97;13.57;;;9.10;99.90;;;;;;5059368;28;20717;-57
2023/10/31 05:51:21;;;;;;;22.73;14.60;;;9.10;99.90;;;;;;5059185;28;20213;-57
2023/10/31 05:53:49;;;;;;;26.00;14.20;;;9.10;99.90;;;;;;5051841;28;20629;-57
2023/10/31 05:56:18;;;;;;;24.37;14.43;;;9.10;99.90;;;;;;5061914;28;20302;-58
2023/10/31 05:58:47;;;;;;;23.23;14.23;;;9.20;99.90;;;;;;5066577;28;20193;-58
2023/10/31 06:01:16;;;;;;;23.27;13.93;;;9.20;99.90;;;;;;5061453;28;20234;-58
2023/10/31 06:03:44;;;;;;;22.97;14.13;;;9.30;99.90;;;;;;5057826;28;20315;-58
2023/10/31 06:06:14;;;;;;;22.57;13.80;;;9.30;99.90;;;;;;5067205;28;20551;-58
2023/10/31 06:08:43;;;;;;;24.67;14.30;;;9.30;99.90;;;;;;5062435;28;20220;-58
2023/10/31 06:11:12;;;;;;;21.93;14.77;;;9.30;99.90;;;;;;5065641;28;20228;-58
2023/10/31 06:13:41;;;;;;;21.27;14.37;;;9.40;99.90;;;;;;5065119;28;20199;-57
2023/10/31 06:16:10;;;;;;;23.00;14.87;;;9.30;99.90;;;;;;5085886;28;20203;-57
2023/10/31 06:18:39;;;;;;;26.33;16.07;;;9.30;99.90;;;;;;5084331;28;20215;-57
2023/10/31 06:21:09;;;;;;;28.03;16.37;;;9.40;99.90;;;;;;5086059;28;20657;-57
2023/10/31 06:23:40;;;;;;;23.73;15.47;;;9.40;99.90;;;;;;5092033;28;20215;-58
2023/10/31 06:26:08;;;;;;;30.27;16.23;;;9.40;99.90;;;;;;5086725;28;20215;-56
2023/10/31 06:28:37;;;;;;;30.17;17.40;;;9.30;99.90;;;;;;5085290;28;20204;-56
2023/10/31 06:31:13;;;;;;;29.13;17.30;;;9.30;99.90;;;;;;5087809;28;20198;-57
2023/10/31 06:33:41;;;;;;;27.77;17.17;;;9.20;99.90;;;;;;5089023;28;20211;-57
2023/10/31 06:36:09;;;;;;;29.00;17.60;;;9.20;99.90;;;;;;5079813;28;20739;-57
2023/10/31 06:38:39;;;;;;;33.23;17.73;;;9.20;99.90;;;;;;5088045;28;20215;-58
2023/10/31 06:41:08;;;;;;;30.60;17.50;;;9.10;99.90;;;;;;5086192;28;20223;-58
2023/10/31 06:43:36;;;;;;;27.83;17.63;;;9.20;99.90;;;;;;5087988;28;20212;-57
2023/10/31 06:46:05;;;;;;;31.43;17.90;;;9.20;99.90;;;;;;5067361;28;20200;-58
2023/10/31 06:48:37;;;;;;;32.93;17.20;;;9.30;99.90;;;;;;5087007;28;20220;-58
2023/10/31 06:51:05;;;;;;;33.37;19.43;;;9.30;99.90;;;;;;5087275;28;20219;-58
2023/10/31 06:53:34;;;;;;;37.23;19.47;;;9.40;99.90;;;;;;5088233;28;20231;-57
2023/10/31 06:56:04;;;;;;;41.00;21.93;;;9.40;99.90;;;;;;5085587;28;20231;-58
2023/10/31 06:58:32;;;;;;;42.40;22.10;;;9.50;99.90;;;;;;5087197;28;20184;-57
2023/10/31 07:01:01;;;;;;;40.87;21.83;;;9.60;99.90;;;;;;5085597;28;20204;-58
2023/10/31 07:03:29;;;;;;;43.80;21.93;;;9.60;99.90;;;;;;5080657;28;20623;-57
2023/10/31 07:05:59;;;;;;;39.80;21.30;;;9.60;99.90;;;;;;5068001;28;20219;-57
2023/10/31 07:08:27;;;;;;;40.37;21.43;;;9.60;99.90;;;;;;5087724;28;20768;-57
2023/10/31 07:10:55;;;;;;;41.80;21.13;;;9.60;99.90;;;;;;5088587;28;20697;-57
2023/10/31 07:13:26;;;;;;;40.70;21.03;;;9.70;99.90;;;;;;5086167;28;20196;-57
2023/10/31 07:15:54;;;;;;;45.77;22.33;;;9.70;99.90;;;;;;5090836;28;20696;-57
2023/10/31 07:18:22;;;;;;;37.27;21.07;;;9.70;99.90;;;;;;5087000;28;20211;-57
2023/10/31 07:20:50;;;;;;;35.23;19.60;;;9.70;99.90;;;;;;5070752;28;20597;-56
2023/10/31 07:23:19;;;;;;;36.10;20.80;;;9.80;99.90;;;;;;5083522;28;20596;-58
2023/10/31 07:25:47;;;;;;;37.10;19.93;;;9.80;99.90;;;;;;5070100;28;20206;-56
2023/10/31 07:28:15;;;;;;;30.07;18.43;;;9.80;99.90;;;;;;5089581;28;20215;-57
2023/10/31 07:30:44;;;;;;;34.43;19.83;;;9.90;99.90;;;;;;5086834;28;20222;-56
2023/10/31 07:33:13;;;;;;;31.40;19.30;;;9.90;99.90;;;;;;5086951;28;20220;-57
2023/10/31 07:35:41;;;;;;;28.30;17.67;;;10.00;99.90;;;;;;5088983;28;20221;-57
2023/10/31 07:38:09;;;;;;;33.43;18.83;;;10.00;99.90;;;;;;5079930;28;20216;-57
2023/10/31 07:40:37;;;;;;;28.17;17.90;;;10.00;99.90;;;;;;5082263;28;20283;-57
2023/10/31 07:43:05;;;;;;;28.77;17.37;;;10.10;99.90;;;;;;5086945;28;20942;-57
2023/10/31 07:45:33;;;;;;;25.40;16.47;;;10.00;99.90;;;;;;5083016;28;20214;-57
2023/10/31 07:48:03;;;;;;;27.73;17.93;;;10.00;99.90;;;;;;5088721;28;20223;-57
2023/10/31 07:50:31;;;;;;;26.13;16.20;;;10.00;99.90;;;;;;5085177;28;20290;-57
2023/10/31 07:53:19;;;;;;;25.23;15.53;;;10.00;99.90;;;;;;5087141;28;20785;-57
2023/10/31 07:55:47;;;;;;;27.73;16.27;;;10.00;99.90;;;;;;5083092;28;20278;-57
2023/10/31 07:58:16;;;;;;;27.03;15.53;;;10.10;99.90;;;;;;5085638;28;20192;-58
2023/10/31 08:00:44;;;;;;;22.83;15.33;;;10.10;99.90;;;;;;5086747;28;20970;-57
2023/10/31 08:03:14;;;;;;;19.40;12.73;;;10.20;99.90;;;;;;5087985;28;20351;-58
2023/10/31 08:05:42;;;;;;;20.97;13.30;;;10.20;99.90;;;;;;5064177;28;20583;-58
2023/10/31 08:08:11;;;;;;;17.40;12.47;;;10.30;99.90;;;;;;5084023;28;20693;-58
2023/10/31 08:10:40;;;;;;;14.77;11.90;;;10.30;99.90;;;;;;5083210;28;20208;-58
2023/10/31 08:13:08;;;;;;;15.67;11.37;;;10.30;99.90;;;;;;5086850;28;20203;-58
2023/10/31 08:15:36;;;;;;;16.13;11.43;;;10.30;99.90;;;;;;5088406;28;20314;-59
2023/10/31 08:18:05;;;;;;;15.93;10.80;;;10.30;99.90;;;;;;5088260;28;20677;-58
2023/10/31 08:20:36;;;;;;;13.40;10.70;;;10.30;99.90;;;;;;5083518;28;20211;-57
2023/10/31 08:23:04;;;;;;;13.13;10.60;;;10.30;99.90;;;;;;5089107;28;20223;-58
2023/10/31 08:25:33;;;;;;;13.60;10.83;;;10.20;99.90;;;;;;5090137;28;20245;-55
2023/10/31 08:28:01;;;;;;;14.63;9.83;;;10.30;99.90;;;;;;5085190;28;20194;-58
2023/10/31 08:30:30;;;;;;;14.87;10.03;;;10.30;99.90;;;;;;5086152;28;20235;-57
2023/10/31 08:32:58;;;;;;;12.27;10.17;;;10.30;99.90;;;;;;5086693;28;20227;-57
2023/10/31 08:35:26;;;;;;;12.87;9.23;;;10.50;99.90;;;;;;5084579;28;20268;-57
2023/10/31 08:37:56;;;;;;;11.67;9.13;;;10.50;99.90;;;;;;5082897;28;20647;-58
2023/10/31 08:40:24;;;;;;;16.37;9.30;;;10.50;99.90;;;;;;5080240;28;20183;-58
2023/10/31 08:42:54;;;;;;;12.23;9.03;;;10.60;99.90;;;;;;5083277;28;20211;-58
2023/10/31 08:45:23;;;;;;;9.77;8.10;;;10.80;99.90;;;;;;5087975;28;20222;-58
2023/10/31 08:47:53;;;;;;;39.67;8.20;;;10.80;99.90;;;;;;5065806;28;20277;-57
2023/10/31 08:50:21;;;;;;;10.10;8.10;;;10.90;99.90;;;;;;5068105;28;20230;-57
2023/10/31 08:52:49;;;;;;;11.23;7.83;;;10.90;99.90;;;;;;5090857;28;20205;-58
2023/10/31 08:55:19;;;;;;;12.13;7.47;;;11.00;99.90;;;;;;5088866;28;20695;-59
2023/10/31 08:57:47;;;;;;;8.53;7.00;;;11.10;99.90;;;;;;5088012;28;20225;-58
2023/10/31 09:00:16;;;;;;;10.93;7.43;;;11.30;99.90;;;;;;5088470;28;20219;-57
2023/10/31 09:02:44;;;;;;;8.87;6.83;;;11.40;99.90;;;;;;5088707;28;20234;-58
2023/10/31 09:05:12;;;;;;;8.37;7.07;;;11.20;99.90;;;;;;5080341;28;20725;-57
2023/10/31 09:07:40;;;;;;;10.43;6.67;;;11.20;99.90;;;;;;5081488;28;20208;-57
2023/10/31 09:10:09;;;;;;;8.53;6.60;;;11.00;99.90;;;;;;5082086;28;20202;-58
2023/10/31 09:12:39;;;;;;;13.03;7.50;;;11.00;99.90;;;;;;5087544;28;20234;-57
2023/10/31 09:15:09;;;;;;;11.73;6.90;;;10.90;99.90;;;;;;5081714;28;20230;-57
2023/10/31 09:17:37;;;;;;;9.17;7.07;;;10.80;99.90;;;;;;5086809;28;20219;-57
2023/10/31 09:20:08;;;;;;;12.77;7.53;;;10.80;99.90;;;;;;5080439;28;20309;-58
2023/10/31 09:22:36;;;;;;;13.33;7.47;;;10.80;99.90;;;;;;5080699;28;21690;-57
2023/10/31 09:25:05;;;;;;;13.17;7.60;;;10.90;99.90;;;;;;5083698;28;20202;-58
2023/10/31 09:27:33;;;;;;;8.60;7.27;;;11.00;99.90;;;;;;5082008;28;20222;-57
2023/10/31 09:30:03;;;;;;;12.77;6.63;;;11.10;99.90;;;;;;5084783;28;20215;-57
2023/10/31 09:32:31;;;;;;;9.07;6.50;;;11.00;99.90;;;;;;5089998;28;20685;-57
2023/10/31 09:34:59;;;;;;;10.70;6.93;;;11.00;99.90;;;;;;5083592;28;20226;-58
2023/10/31 09:37:28;;;;;;;10.37;6.27;;;11.00;99.90;;;;;;5086260;28;20217;-57
2023/10/31 09:39:56;;;;;;;11.53;6.33;;;11.00;99.90;;;;;;5085776;28;20216;-57
2023/10/31 09:42:24;;;;;;;8.80;6.43;;;11.00;99.90;;;;;;5082220;28;20569;-58
2023/10/31 09:44:52;;;;;;;8.40;6.63;;;11.10;99.90;;;;;;5080885;28;20219;-58
2023/10/31 09:47:25;;;;;;;8.27;6.77;;;11.30;99.90;;;;;;5083966;28;20238;-58
2023/10/31 09:49:54;;;;;;;8.13;6.10;;;11.20;99.90;;;;;;5081986;28;20301;-57
2023/10/31 09:52:23;;;;;;;9.30;6.43;;;11.30;99.90;;;;;;5087357;28;20220;-58
2023/10/31 09:54:54;;;;;;;9.47;5.97;;;11.30;99.90;;;;;;5078540;28;20226;-57
2023/10/31 09:57:22;;;;;;;11.37;5.90;;;11.30;99.90;;;;;;5081679;28;20925;-58
2023/10/31 09:59:51;;;;;;;8.63;6.03;;;11.20;99.90;;;;;;5080213;28;20266;-57
2023/10/31 10:02:24;;;;;;;8.60;5.90;;;11.30;99.90;;;;;;5081957;28;20230;-58
2023/10/31 10:04:53;;;;;;;11.83;6.20;;;11.30;99.90;;;;;;5082311;28;20223;-58
2023/10/31 10:07:43;;;;;;;9.40;6.23;;;11.40;99.90;;;;;;5079452;28;20272;-58
2023/10/31 10:10:13;;;;;;;9.17;6.87;;;11.30;99.90;;;;;;5080406;28;20241;-58
2023/10/31 10:12:43;;;;;;;12.90;7.10;;;11.40;99.90;;;;;;5080670;28;20299;-58
2023/10/31 10:15:12;;;;;;;8.70;6.10;;;11.30;99.90;;;;;;5077688;28;20216;-59
2023/10/31 10:17:50;;;;;;;12.23;7.17;;;11.20;99.90;;;;;;5080292;28;20219;-58
2023/10/31 10:20:18;;;;;;;9.23;6.33;;;11.20;99.90;;;;;;5085007;28;20225;-57
2023/10/31 10:22:47;;;;;;;9.60;7.00;;;11.20;99.90;;;;;;5082695;28;20594;-58
2023/10/31 10:25:18;;;;;;;11.97;7.23;;;11.00;99.90;;;;;;5081510;28;20205;-58
2023/10/31 10:27:47;;;;;;;12.67;7.57;;;11.00;99.90;;;;;;5083835;28;20222;-58
2023/10/31 10:30:16;;;;;;;10.93;6.93;;;11.00;99.90;;;;;;5081213;28;20214;-58
2023/10/31 10:32:45;;;;;;;10.20;7.20;;;11.00;99.90;;;;;;5086621;28;20284;-58
2023/10/31 10:35:15;;;;;;;14.97;8.10;;;11.10;99.90;;;;;;5082354;28;20877;-59
2023/10/31 10:37:47;;;;;;;9.70;7.10;;;11.10;99.90;;;;;;5081627;28;20869;-58
2023/10/31 10:40:16;;;;;;;12.83;7.97;;;11.10;99.90;;;;;;5079214;28;22665;-58
2023/10/31 10:42:47;;;;;;;20.07;8.00;;;11.10;99.90;;;;;;5088923;28;20211;-58
2023/10/31 10:45:17;;;;;;;15.83;8.70;;;11.20;99.90;;;;;;5087120;28;20214;-58
2023/10/31 10:47:50;;;;;;;13.40;7.47;;;11.20;99.90;;;;;;5083154;28;20628;-58
2023/10/31 10:50:20;;;;;;;12.53;8.07;;;11.20;99.90;;;;;;5082086;28;20235;-58
2023/10/31 10:52:55;;;;;;;16.53;8.53;;;11.30;99.90;;;;;;5080525;28;20203;-58
2023/10/31 10:55:26;;;;;;;14.53;8.67;;;11.30;99.90;;;;;;5083964;28;20739;-58
2023/10/31 10:58:01;;;;;;;16.70;9.00;;;11.30;99.90;;;;;;5080513;28;20589;-58
2023/10/31 11:00:30;;;;;;;14.33;8.70;;;11.30;99.90;;;;;;5080995;28;20317;-57
2023/10/31 11:03:01;;;;;;;16.47;9.03;;;11.20;99.90;;;;;;5088038;28;20226;-58
2023/10/31 11:05:31;;;;;;;15.40;9.23;;;11.20;99.90;;;;;;5084020;28;20318;-59
2023/10/31 11:08:00;;;;;;;21.33;9.80;;;11.20;99.90;;;;;;5064419;28;20658;-57
2023/10/31 11:10:30;;;;;;;16.73;9.27;;;11.20;99.90;;;;;;5085747;28;20859;-59
2023/10/31 11:13:00;;;;;;;16.90;9.53;;;11.20;99.90;;;;;;5088362;28;20203;-58
2023/10/31 11:15:28;;;;;;;13.97;9.80;;;11.20;99.90;;;;;;5075104;28;20226;-58
2023/10/31 11:17:59;;;;;;;15.07;8.90;;;11.20;99.90;;;;;;5088521;28;20321;-58
2023/10/31 11:20:29;;;;;;;14.33;9.70;;;11.20;99.90;;;;;;5090263;28;20207;-58
2023/10/31 11:22:58;;;;;;;12.30;9.60;;;11.20;99.90;;;;;;5091882;28;20223;-58
2023/10/31 11:25:27;;;;;;;13.77;9.40;;;11.20;99.90;;;;;;5086561;28;20657;-58
2023/10/31 11:28:13;;;;;;;15.00;9.93;;;11.20;99.90;;;;;;5066791;28;20224;-58
2023/10/31 11:30:42;;;;;;;17.37;9.77;;;11.20;99.90;;;;;;5088371;28;20230;-59
2023/10/31 11:33:16;;;;;;;15.50;9.90;;;11.20;99.90;;;;;;5090084;28;20239;-58
2023/10/31 11:35:50;;;;;;;20.23;9.67;;;11.30;99.90;;;;;;5079723;28;20227;-58
2023/10/31 11:38:32;;;;;;;13.00;9.50;;;11.30;99.90;;;;;;5085360;28;20655;-58
2023/10/31 11:41:02;;;;;;;15.07;9.40;;;11.40;99.90;;;;;;5083711;28;20223;-58
2023/10/31 11:43:53;;;;;;;14.20;9.23;;;11.40;99.90;;;;;;5086567;28;20271;-58
2023/10/31 11:46:23;;;;;;;15.73;9.57;;;11.50;99.90;;;;;;5078493;28;20220;-58
2023/10/31 11:48:54;;;;;;;15.73;9.83;;;11.40;99.90;;;;;;5086890;28;20270;-58
2023/10/31 11:51:22;;;;;;;18.00;11.17;;;11.40;99.90;;;;;;5084166;28;20223;-59
2023/10/31 11:53:51;;;;;;;22.57;11.27;;;11.30;99.90;;;;;;5081752;28;20215;-57
2023/10/31 11:56:20;;;;;;;19.37;11.57;;;11.20;99.90;;;;;;5085177;28;20261;-58
2023/10/31 11:58:56;;;;;;;18.27;11.57;;;11.20;99.90;;;;;;5087101;28;20532;-59
2023/10/31 12:01:25;;;;;;;18.10;11.60;;;11.20;99.90;;;;;;5082108;28;20553;-59
2023/10/31 12:03:54;;;;;;;18.20;10.87;;;11.20;99.90;;;;;;5083812;28;20972;-58
2023/10/31 12:06:25;;;;;;;19.90;10.87;;;11.30;99.90;;;;;;5084932;28;20318;-58
2023/10/31 12:08:53;;;;;;;24.00;10.90;;;11.30;99.90;;;;;;5078615;28;20723;-57
2023/10/31 12:11:24;;;;;;;17.50;10.37;;;11.20;99.90;;;;;;5084613;28;20222;-59
2023/10/31 12:13:56;;;;;;;17.10;10.33;;;11.30;99.90;;;;;;5082801;28;20218;-58
2023/10/31 12:16:26;;;;;;;18.77;11.57;;;11.30;99.90;;;;;;5089324;28;20202;-58
2023/10/31 12:18:57;;;;;;;15.87;10.43;;;11.30;99.90;;;;;;5063312;28;20232;-58
2023/10/31 12:21:39;;;;;;;17.90;11.67;;;11.40;99.90;;;;;;5046215;28;20223;-58
2023/10/31 12:24:09;;;;;;;20.00;12.23;;;11.40;99.90;;;;;;5065613;28;20211;-58
2023/10/31 12:26:38;;;;;;;21.50;11.10;;;11.50;99.90;;;;;;5071610;28;20672;-57
2023/10/31 12:29:11;;;;;;;21.47;11.57;;;11.60;99.90;;;;;;5085956;28;20219;-57
2023/10/31 12:31:45;;;;;;;18.03;11.33;;;11.60;99.90;;;;;;5088393;28;20317;-58
2023/10/31 12:34:15;;;;;;;16.40;10.87;;;11.70;99.90;;;;;;5087323;28;20222;-57
2023/10/31 12:36:45;;;;;;;23.00;11.13;;;11.70;99.90;;;;;;5079342;28;20215;-57
2023/10/31 12:39:13;;;;;;;21.00;10.67;;;11.80;99.90;;;;;;5084056;28;20215;-58
2023/10/31 12:41:42;;;;;;;17.03;10.30;;;11.80;99.90;;;;;;5086545;28;20230;-58
2023/10/31 12:44:11;;;;;;;12.57;9.10;;;11.90;99.90;;;;;;5086007;28;20534;-58
2023/10/31 12:46:41;;;;;;;15.93;8.43;;;11.80;99.90;;;;;;5091895;28;20187;-58
2023/10/31 12:49:14;;;;;;;14.33;8.53;;;11.70;99.90;;;;;;5082501;28;20192;-58